createdAt,value
2018-10-03T00:01:27.951Z,2.77
2018-10-03T00:03:55.891Z,2.10
2018-10-03T00:06:23.810Z,2.53
2018-10-03T00:08:51.831Z,2.27
2018-10-03T00:11:19.903Z,2.20
2018-10-03T00:13:47.748Z,2.20
2018-10-03T00:16:15.848Z,2.10
2018-10-03T00:18:43.832Z,2.70
2018-10-03T00:21:11.888Z,1.87
2018-10-03T00:23:39.757Z,2.33
2018-10-03T00:26:07.679Z,1.93
2018-10-03T00:28:35.607Z,2.50
2018-10-03T00:31:03.437Z,2.07
2018-10-03T00:33:31.268Z,2.20
2018-10-03T00:35:59.099Z,2.50
2018-10-03T00:38:26.951Z,2.40
2018-10-03T00:40:54.785Z,2.43
2018-10-03T00:43:22.652Z,2.53
2018-10-03T00:45:50.544Z,2.30
2018-10-03T00:48:18.621Z,2.73
2018-10-03T00:50:46.429Z,3.33
2018-10-03T00:53:14.276Z,2.10
2018-10-03T00:55:42.240Z,3.20
2018-10-03T00:58:10.127Z,2.27
2018-10-03T01:00:38.004Z,2.60
2018-10-03T01:03:06.332Z,2.23
2018-10-03T01:05:34.205Z,2.30
2018-10-03T01:08:03.322Z,2.57
2018-10-03T01:10:31.059Z,2.07
2018-10-03T01:12:58.818Z,2.13
2018-10-03T01:15:26.731Z,2.37
2018-10-03T01:17:54.525Z,2.27
2018-10-03T01:20:22.358Z,2.37
2018-10-03T01:22:50.126Z,2.23
2018-10-03T01:25:17.955Z,2.40
2018-10-03T01:27:45.759Z,2.30
2018-10-03T01:30:13.555Z,2.00
2018-10-03T01:32:41.358Z,1.93
2018-10-03T01:35:09.195Z,2.50
2018-10-03T01:37:36.976Z,2.00
2018-10-03T01:40:04.834Z,2.10
2018-10-03T01:42:32.595Z,2.00
2018-10-03T01:45:00.408Z,2.10
2018-10-03T01:47:28.179Z,1.83
2018-10-03T01:49:56.163Z,2.30
2018-10-03T01:52:23.949Z,2.47
2018-10-03T01:54:51.799Z,2.20
2018-10-03T01:57:19.588Z,2.10
2018-10-03T01:59:47.347Z,2.13
2018-10-03T02:02:15.110Z,2.20
2018-10-03T02:04:42.863Z,2.17
2018-10-03T02:07:10.632Z,2.43
2018-10-03T02:09:38.373Z,2.07
2018-10-03T02:12:06.175Z,1.90
2018-10-03T02:14:33.952Z,2.07
2018-10-03T02:17:02.135Z,2.07
2018-10-03T02:19:29.848Z,2.53
2018-10-03T02:22:03.271Z,2.47
2018-10-03T02:24:31.016Z,2.80
2018-10-03T02:26:58.761Z,2.30
2018-10-03T02:29:26.745Z,2.10
2018-10-03T02:31:54.503Z,2.50
2018-10-03T02:34:22.722Z,2.33
2018-10-03T02:36:50.615Z,2.13
2018-10-03T02:39:18.390Z,2.63
2018-10-03T02:41:46.243Z,2.13
2018-10-03T02:44:14.366Z,1.80
2018-10-03T02:46:43.801Z,1.80
2018-10-03T02:49:11.629Z,2.60
2018-10-03T02:51:39.368Z,2.23
2018-10-03T02:54:07.258Z,1.97
2018-10-03T02:56:35.001Z,2.40
2018-10-03T02:59:03.031Z,1.83
2018-10-03T03:01:30.917Z,2.37
2018-10-03T03:13:20.111Z,2.40
2018-10-03T03:15:47.911Z,2.37
2018-10-03T03:18:15.764Z,2.20
2018-10-03T03:20:43.602Z,1.73
2018-10-03T03:23:11.414Z,2.00
2018-10-03T03:25:39.162Z,2.00
2018-10-03T03:28:06.922Z,1.83
2018-10-03T03:30:34.699Z,1.80
2018-10-03T03:33:02.607Z,2.20
2018-10-03T03:35:30.358Z,2.47
2018-10-03T03:37:58.128Z,2.33
2018-10-03T03:40:25.895Z,2.30
2018-10-03T03:42:53.654Z,2.47
2018-10-03T03:45:21.417Z,1.87
2018-10-03T03:47:49.362Z,1.70
2018-10-03T03:50:17.136Z,2.00
2018-10-03T03:52:44.896Z,1.90
2018-10-03T03:55:12.700Z,2.20
2018-10-03T03:57:40.801Z,2.50
2018-10-03T04:00:08.667Z,2.03
2018-10-03T04:02:36.479Z,2.23
2018-10-03T04:05:04.495Z,2.17
2018-10-03T04:07:32.297Z,2.30
2018-10-03T04:10:00.056Z,2.07
2018-10-03T04:12:28.075Z,2.10
2018-10-03T04:14:55.879Z,2.07
2018-10-03T04:17:27.457Z,2.23
2018-10-03T04:19:55.299Z,2.70
2018-10-03T04:22:23.040Z,1.90
2018-10-03T04:24:51.035Z,1.83
2018-10-03T04:27:18.788Z,2.00
2018-10-03T04:29:46.562Z,2.20
2018-10-03T04:32:14.322Z,2.30
2018-10-03T04:34:42.144Z,2.27
2018-10-03T04:37:09.910Z,2.00
2018-10-03T04:39:37.705Z,2.40
2018-10-03T04:42:05.795Z,1.80
2018-10-03T04:44:33.557Z,1.90
2018-10-03T04:47:01.367Z,1.87
2018-10-03T04:49:29.141Z,1.77
2018-10-03T04:51:56.903Z,1.80
2018-10-03T04:54:24.651Z,2.10
2018-10-03T04:56:52.394Z,2.20
2018-10-03T04:59:20.134Z,2.03
2018-10-03T05:01:52.366Z,1.83
2018-10-03T05:04:20.144Z,1.80
2018-10-03T05:06:47.981Z,1.90
2018-10-03T05:09:16.839Z,1.87
2018-10-03T05:11:44.623Z,2.10
2018-10-03T05:14:12.432Z,2.00
2018-10-03T05:16:40.298Z,1.80
2018-10-03T05:19:11.748Z,2.10
2018-10-03T05:21:39.506Z,1.60
2018-10-03T05:24:07.493Z,2.43
2018-10-03T05:26:35.304Z,2.50
2018-10-03T05:29:03.143Z,2.30
2018-10-03T05:31:30.962Z,1.70
2018-10-03T05:33:59.098Z,1.97
2018-10-03T05:36:26.866Z,1.93
2018-10-03T05:38:55.010Z,2.10
2018-10-03T05:41:22.879Z,2.50
2018-10-03T05:43:50.618Z,2.43
2018-10-03T05:46:18.403Z,1.93
2018-10-03T05:48:46.303Z,1.83
2018-10-03T05:51:14.131Z,2.07
2018-10-03T05:53:41.939Z,2.50
2018-10-03T05:56:09.974Z,1.83
2018-10-03T05:58:38.041Z,1.77
2018-10-03T06:01:05.975Z,1.67
2018-10-03T06:03:33.711Z,1.80
2018-10-03T06:06:01.653Z,1.50
2018-10-03T06:08:29.397Z,2.40
2018-10-03T06:10:57.192Z,1.63
2018-10-03T06:13:25.023Z,2.40
2018-10-03T06:15:53.114Z,2.07
2018-10-03T06:18:20.855Z,1.83
2018-10-03T06:20:48.623Z,1.97
2018-10-03T06:23:16.432Z,1.70
2018-10-03T06:25:44.268Z,1.90
2018-10-03T06:28:15.924Z,1.90
2018-10-03T06:30:43.670Z,2.47
2018-10-03T06:33:11.766Z,1.97
2018-10-03T06:35:39.513Z,3.03
2018-10-03T06:38:07.396Z,2.70
2018-10-03T06:40:35.146Z,2.43
2018-10-03T06:43:03.423Z,2.77
2018-10-03T06:45:31.204Z,1.87
2018-10-03T06:47:58.990Z,1.90
2018-10-03T06:50:27.023Z,1.77
2018-10-03T06:52:54.783Z,2.30
2018-10-03T06:55:22.575Z,2.00
2018-10-03T06:57:50.311Z,2.40
2018-10-03T07:00:18.195Z,2.37
2018-10-03T07:02:46.076Z,2.33
2018-10-03T07:05:13.824Z,2.30
2018-10-03T07:07:41.579Z,2.73
2018-10-03T07:10:09.428Z,2.17
2018-10-03T07:12:37.402Z,2.03
2018-10-03T07:15:05.332Z,2.10
2018-10-03T07:17:33.213Z,2.10
2018-10-03T07:20:01.513Z,2.27
2018-10-03T07:22:29.340Z,1.93
2018-10-03T07:24:57.290Z,1.97
2018-10-03T07:27:25.219Z,1.80
2018-10-03T07:29:52.984Z,2.40
2018-10-03T07:32:20.814Z,2.10
2018-10-03T07:34:48.796Z,2.33
2018-10-03T07:37:16.629Z,1.70
2018-10-03T07:39:44.655Z,1.80
2018-10-03T07:42:12.437Z,1.83
2018-10-03T07:44:40.240Z,2.80
2018-10-03T07:47:08.110Z,1.83
2018-10-03T07:49:35.968Z,2.07
2018-10-03T07:52:03.864Z,1.70
2018-10-03T07:54:31.663Z,2.00
2018-10-03T07:56:59.465Z,1.87
2018-10-03T07:59:27.537Z,2.10
2018-10-03T08:01:55.316Z,3.10
2018-10-03T08:04:23.106Z,3.20
2018-10-03T08:06:51.177Z,2.73
2018-10-03T08:09:18.968Z,2.53
2018-10-03T08:11:46.850Z,1.93
2018-10-03T08:14:14.639Z,2.40
2018-10-03T08:16:42.444Z,2.27
2018-10-03T08:19:10.343Z,2.40
2018-10-03T08:21:38.118Z,1.93
2018-10-03T08:24:06.037Z,2.47
2018-10-03T08:26:33.796Z,1.70
2018-10-03T08:29:01.723Z,2.10
2018-10-03T08:31:30.232Z,2.00
2018-10-03T08:33:58.077Z,1.90
2018-10-03T08:36:26.072Z,1.60
2018-10-03T08:38:53.986Z,2.13
2018-10-03T08:41:21.820Z,2.30
2018-10-03T08:43:56.855Z,1.93
2018-10-03T08:46:24.737Z,1.97
2018-10-03T08:48:52.646Z,2.10
2018-10-03T08:51:20.467Z,4.43
2018-10-03T08:53:48.288Z,3.23
2018-10-03T08:56:16.126Z,2.57
2018-10-03T08:58:44.093Z,2.40
2018-10-03T09:01:11.967Z,2.00
2018-10-03T09:03:39.841Z,4.53
2018-10-03T09:06:07.636Z,3.30
2018-10-03T09:08:35.522Z,2.00
2018-10-03T09:11:03.657Z,2.20
2018-10-03T09:13:31.775Z,2.00
2018-10-03T09:15:59.591Z,2.13
2018-10-03T09:18:27.398Z,1.87
2018-10-03T09:20:55.199Z,1.83
2018-10-03T09:23:22.986Z,2.03
2018-10-03T09:25:50.780Z,2.27
2018-10-03T09:28:18.618Z,2.27
2018-10-03T09:30:46.492Z,1.73
2018-10-03T09:33:14.351Z,2.10
2018-10-03T09:35:42.248Z,1.80
2018-10-03T09:38:10.071Z,2.47
2018-10-03T09:40:37.995Z,1.87
2018-10-03T09:43:06.219Z,1.80
2018-10-03T09:45:33.987Z,1.87
2018-10-03T09:48:01.818Z,1.87
2018-10-03T09:50:29.615Z,1.53
2018-10-03T09:52:57.392Z,2.10
2018-10-03T09:55:25.463Z,1.60
2018-10-03T09:57:53.257Z,2.17
2018-10-03T10:00:26.957Z,1.80
2018-10-03T10:02:54.807Z,1.80
2018-10-03T10:05:23.230Z,1.93
2018-10-03T10:07:51.218Z,1.90
2018-10-03T10:10:19.383Z,2.13
2018-10-03T10:12:47.593Z,1.80
2018-10-03T10:15:15.380Z,1.43
2018-10-03T10:17:43.336Z,1.80
2018-10-03T10:20:11.342Z,1.70
2018-10-03T10:22:39.131Z,1.47
2018-10-03T10:25:07.079Z,1.93
2018-10-03T10:27:35.028Z,1.70
2018-10-03T10:30:03.696Z,1.67
2018-10-03T10:32:31.839Z,1.67
2018-10-03T10:34:59.914Z,1.87
2018-10-03T10:37:27.892Z,1.97
2018-10-03T10:39:55.819Z,1.33
2018-10-03T10:42:23.862Z,1.70
2018-10-03T10:44:51.768Z,1.30
2018-10-03T10:47:19.567Z,1.67
2018-10-03T10:49:47.424Z,1.60
2018-10-03T10:52:15.427Z,1.20
2018-10-03T10:54:43.217Z,1.60
2018-10-03T10:57:11.096Z,1.53
2018-10-03T10:59:39.449Z,1.50
2018-10-03T11:02:07.415Z,1.80
2018-10-03T11:04:35.222Z,1.70
2018-10-03T11:07:03.061Z,1.80
2018-10-03T11:09:31.336Z,1.90
2018-10-03T11:11:59.660Z,1.87
2018-10-03T11:14:27.527Z,1.50
2018-10-03T11:16:55.875Z,1.50
2018-10-03T11:19:23.644Z,1.20
2018-10-03T11:21:51.463Z,1.30
2018-10-03T11:24:19.452Z,2.20
2018-10-03T11:26:47.471Z,3.13
2018-10-03T11:29:15.363Z,1.27
2018-10-03T11:31:43.159Z,1.40
2018-10-03T11:34:11.010Z,1.70
2018-10-03T11:36:38.822Z,1.43
2018-10-03T11:39:08.659Z,1.20
2018-10-03T11:41:37.285Z,1.90
2018-10-03T11:44:05.237Z,2.13
2018-10-03T11:46:33.009Z,1.97
2018-10-03T11:49:00.847Z,1.43
2018-10-03T11:51:28.746Z,1.10
2018-10-03T11:53:56.609Z,1.50
2018-10-03T11:56:24.445Z,1.60
2018-10-03T11:58:53.678Z,1.20
2018-10-03T12:01:21.466Z,1.57
2018-10-03T12:03:49.267Z,2.03
2018-10-03T12:06:16.840Z,1.50
2018-10-03T12:08:44.707Z,1.33
2018-10-03T12:11:12.482Z,1.17
2018-10-03T12:13:40.367Z,1.33
2018-10-03T12:16:08.283Z,1.30
2018-10-03T12:18:36.087Z,1.30
2018-10-03T12:21:04.212Z,1.50
2018-10-03T12:23:32.007Z,1.70
2018-10-03T12:25:59.883Z,1.50
2018-10-03T12:28:27.799Z,1.37
2018-10-03T12:30:58.950Z,1.63
2018-10-03T12:33:27.113Z,1.30
2018-10-03T12:35:54.832Z,1.70
2018-10-03T12:38:22.670Z,1.47
2018-10-03T12:40:50.491Z,1.70
2018-10-03T12:43:18.282Z,2.17
2018-10-03T12:45:46.086Z,1.50
2018-10-03T12:48:13.851Z,1.20
2018-10-03T12:50:41.609Z,1.37
2018-10-03T12:53:09.415Z,1.10
2018-10-03T12:55:37.199Z,1.27
2018-10-03T12:58:05.085Z,1.53
2018-10-03T13:00:33.243Z,1.17
2018-10-03T13:03:02.342Z,1.20
2018-10-03T13:05:30.180Z,1.37
2018-10-03T13:07:58.472Z,1.10
2018-10-03T13:13:35.900Z,1.13
2018-10-03T13:16:03.764Z,1.17
2018-10-03T13:18:31.582Z,1.50
2018-10-03T13:20:59.390Z,1.30
2018-10-03T13:23:27.474Z,1.30
2018-10-03T13:25:55.231Z,1.23
2018-10-03T13:28:23.276Z,1.20
2018-10-03T13:30:51.086Z,1.13
2018-10-03T13:33:18.871Z,1.17
2018-10-03T13:35:47.652Z,1.40
2018-10-03T13:38:15.508Z,1.80
2018-10-03T13:40:43.308Z,1.23
2018-10-03T13:43:11.079Z,1.30
2018-10-03T13:45:38.932Z,1.10
2018-10-03T13:48:06.987Z,1.03
2018-10-03T13:50:34.902Z,1.23
2018-10-03T13:53:02.998Z,1.30
2018-10-03T13:55:30.815Z,1.40
2018-10-03T13:57:58.871Z,1.00
2018-10-03T14:00:26.762Z,1.37
2018-10-03T14:02:54.568Z,1.83
2018-10-03T14:05:22.356Z,1.70
2018-10-03T14:07:50.375Z,1.80
2018-10-03T14:10:18.145Z,1.50
2018-10-03T14:12:46.022Z,1.30
2018-10-03T14:15:13.843Z,1.20
2018-10-03T14:17:42.001Z,1.10
2018-10-03T14:20:10.031Z,1.20
2018-10-03T14:22:37.816Z,1.20
2018-10-03T14:25:05.696Z,1.50
2018-10-03T14:27:33.612Z,1.10
2018-10-03T14:30:01.709Z,1.43
2018-10-03T14:32:29.500Z,1.20
2018-10-03T14:34:57.336Z,1.20
2018-10-03T14:37:31.038Z,1.00
2018-10-03T14:39:58.886Z,1.03
2018-10-03T14:42:26.762Z,1.07
2018-10-03T14:44:54.541Z,1.20
2018-10-03T14:47:22.372Z,1.63
2018-10-03T14:49:50.133Z,1.30
2018-10-03T14:52:18.086Z,1.20
2018-10-03T14:54:45.932Z,1.10
2018-10-03T14:57:13.695Z,1.30
2018-10-03T14:59:41.557Z,1.27
2018-10-03T15:02:09.349Z,1.17
2018-10-03T15:04:37.184Z,1.17
2018-10-03T15:07:05.231Z,1.13
2018-10-03T15:09:32.999Z,1.00
2018-10-03T15:12:01.865Z,1.27
2018-10-03T15:14:29.765Z,1.67
2018-10-03T15:16:57.496Z,1.23
2018-10-03T15:19:25.242Z,3.07
2018-10-03T15:21:53.043Z,1.90
2018-10-03T15:24:20.836Z,1.30
2018-10-03T15:26:48.710Z,1.70
2018-10-03T15:29:16.537Z,1.63
2018-10-03T15:31:44.726Z,1.50
2018-10-03T15:34:12.647Z,1.90
2018-10-03T15:36:40.508Z,1.70
2018-10-03T15:39:08.916Z,1.40
2018-10-03T15:41:36.980Z,1.53
2018-10-03T15:44:04.864Z,2.00
2018-10-03T15:46:32.927Z,1.83
2018-10-03T15:49:00.768Z,1.40
2018-10-03T15:51:28.560Z,1.40
2018-10-03T15:53:56.452Z,1.80
2018-10-03T15:56:24.198Z,1.60
2018-10-03T15:58:52.108Z,1.70
2018-10-03T16:01:19.987Z,1.93
2018-10-03T16:03:47.784Z,1.70
2018-10-03T16:06:15.625Z,2.17
2018-10-03T16:08:43.473Z,1.70
2018-10-03T16:11:11.249Z,1.80
2018-10-03T16:13:39.060Z,1.53
2018-10-03T16:16:06.843Z,1.87
2018-10-03T16:18:35.851Z,1.80
2018-10-03T16:21:03.647Z,1.70
2018-10-03T16:23:31.448Z,1.80
2018-10-03T16:25:59.359Z,1.30
2018-10-03T16:28:27.170Z,1.60
2018-10-03T16:30:55.003Z,1.60
2018-10-03T16:33:22.799Z,1.47
2018-10-03T16:35:50.575Z,1.87
2018-10-03T16:38:22.195Z,1.90
2018-10-03T16:40:49.985Z,1.70
2018-10-03T16:43:17.863Z,2.13
2018-10-03T16:45:45.760Z,1.80
2018-10-03T16:48:13.714Z,1.90
2018-10-03T16:50:41.604Z,1.80
2018-10-03T16:53:09.415Z,1.90
2018-10-03T16:55:37.371Z,2.07
2018-10-03T16:58:05.213Z,1.90
2018-10-03T17:00:33.007Z,2.07
2018-10-03T17:03:00.844Z,2.20
2018-10-03T17:05:28.596Z,1.90
2018-10-03T17:07:56.543Z,2.07
2018-10-03T17:10:24.323Z,1.97
2018-10-03T17:12:52.067Z,1.90
2018-10-03T17:15:20.282Z,2.10
2018-10-03T17:17:48.071Z,1.83
2018-10-03T17:20:16.025Z,2.00
2018-10-03T17:22:43.874Z,2.13
2018-10-03T17:25:11.913Z,2.50
2018-10-03T17:27:39.794Z,2.10
2018-10-03T17:30:07.591Z,2.30
2018-10-03T17:32:35.351Z,2.10
2018-10-03T17:35:03.154Z,2.07
2018-10-03T17:37:31.123Z,2.37
2018-10-03T17:39:59.059Z,2.30
2018-10-03T17:42:26.845Z,2.40
2018-10-03T17:44:54.770Z,1.90
2018-10-03T17:47:22.786Z,2.20
2018-10-03T17:49:50.549Z,2.13
2018-10-03T17:52:18.448Z,1.83
2018-10-03T17:54:46.379Z,2.10
2018-10-03T17:57:14.303Z,1.77
2018-10-03T17:59:42.076Z,2.60
2018-10-03T18:02:11.271Z,2.37
2018-10-03T18:04:44.650Z,2.47
2018-10-03T18:07:12.491Z,2.53
2018-10-03T18:09:40.371Z,2.83
2018-10-03T18:12:08.419Z,2.50
2018-10-03T18:14:36.391Z,2.70
2018-10-03T18:17:04.592Z,3.10
2018-10-03T18:19:32.364Z,2.23
2018-10-03T18:22:00.136Z,2.60
2018-10-03T18:24:28.612Z,2.70
2018-10-03T18:26:56.522Z,2.63
2018-10-03T18:29:24.323Z,2.37
2018-10-03T18:31:52.278Z,2.07
2018-10-03T18:34:20.311Z,2.43
2018-10-03T18:36:48.195Z,2.10
2018-10-03T18:39:16.215Z,2.60
2018-10-03T18:41:43.942Z,2.20
2018-10-03T18:44:11.814Z,2.13
2018-10-03T18:46:39.639Z,2.43
2018-10-03T18:49:07.455Z,2.30
2018-10-03T18:51:35.292Z,2.27
2018-10-03T18:54:03.182Z,3.00
2018-10-03T18:56:30.971Z,2.90
2018-10-03T18:58:58.879Z,2.33
2018-10-03T19:01:27.043Z,2.97
2018-10-03T19:03:54.996Z,2.30
2018-10-03T19:06:22.882Z,2.60
2018-10-03T19:08:50.945Z,2.87
2018-10-03T19:11:18.771Z,3.33
2018-10-03T19:13:46.547Z,2.63
2018-10-03T19:16:14.375Z,2.40
2018-10-03T19:18:43.014Z,2.27
2018-10-03T19:21:11.016Z,2.90
2018-10-03T19:23:39.039Z,3.20
2018-10-03T19:26:06.929Z,2.80
2018-10-03T19:28:34.794Z,3.30
2018-10-03T19:31:02.581Z,3.27
2018-10-03T19:33:30.673Z,2.67
2018-10-03T19:35:58.767Z,2.93
2018-10-03T19:38:26.660Z,2.80
2018-10-03T19:40:54.431Z,2.87
2018-10-03T19:43:22.229Z,2.83
2018-10-03T19:45:50.461Z,2.73
2018-10-03T19:48:18.251Z,2.53
2018-10-03T19:50:46.032Z,2.83
2018-10-03T19:53:20.709Z,2.87
2018-10-03T19:55:52.260Z,3.10
2018-10-03T19:58:20.111Z,2.87
2018-10-03T20:00:48.066Z,2.60
2018-10-03T20:03:15.887Z,2.97
2018-10-03T20:05:43.659Z,2.57
2018-10-03T20:08:11.482Z,2.80
2018-10-03T20:10:39.261Z,2.70
2018-10-03T20:13:07.063Z,2.67
2018-10-03T20:15:34.866Z,3.00
2018-10-03T20:18:02.639Z,3.43
2018-10-03T20:20:30.439Z,2.90
2018-10-03T20:22:58.203Z,3.17
2018-10-03T20:25:26.086Z,2.70
2018-10-03T20:27:53.913Z,3.70
2018-10-03T20:30:21.701Z,3.47
2018-10-03T20:32:49.482Z,3.43
2018-10-03T20:35:17.298Z,3.03
2018-10-03T20:37:45.095Z,2.80
2018-10-03T20:40:12.917Z,2.77
2018-10-03T20:42:40.699Z,3.60
2018-10-03T20:45:08.497Z,2.73
2018-10-03T20:47:36.288Z,2.60
2018-10-03T20:50:04.135Z,3.60
2018-10-03T20:52:31.941Z,3.03
2018-10-03T20:54:59.895Z,2.40
2018-10-03T20:57:27.679Z,2.93
2018-10-03T20:59:55.516Z,2.70
2018-10-03T21:02:23.271Z,2.17
2018-10-03T21:04:51.033Z,2.70
2018-10-03T21:07:19.148Z,3.70
2018-10-03T21:09:46.919Z,2.50
2018-10-03T21:12:14.736Z,3.00
2018-10-03T21:14:42.502Z,2.60
2018-10-03T21:17:10.323Z,2.50
2018-10-03T21:19:38.103Z,2.67
2018-10-03T21:22:05.923Z,2.80
2018-10-03T21:24:33.727Z,3.03
2018-10-03T21:27:02.220Z,2.63
2018-10-03T21:29:30.014Z,2.73
2018-10-03T21:31:57.856Z,2.97
2018-10-03T21:34:25.638Z,2.63
2018-10-03T21:36:53.494Z,2.80
2018-10-03T21:39:21.295Z,2.90
2018-10-03T21:41:49.385Z,2.90
2018-10-03T21:44:17.163Z,4.07
2018-10-03T21:46:44.988Z,4.73
2018-10-03T21:49:12.842Z,3.33
2018-10-03T21:51:41.857Z,3.80
2018-10-03T21:54:09.712Z,3.90
2018-10-03T21:56:37.498Z,3.60
2018-10-03T21:59:05.435Z,2.63
2018-10-03T22:01:33.229Z,3.80
2018-10-03T22:04:01.208Z,2.83
2018-10-03T22:06:29.426Z,3.30
2018-10-03T22:08:57.237Z,3.03
2018-10-03T22:11:25.036Z,2.80
2018-10-03T22:13:52.992Z,3.47
2018-10-03T22:16:20.758Z,3.23
2018-10-03T22:18:48.572Z,3.53
2018-10-03T22:21:16.369Z,2.70
2018-10-03T22:23:44.168Z,3.43
2018-10-03T22:26:11.935Z,2.70
2018-10-03T22:28:39.716Z,2.90
2018-10-03T22:31:07.831Z,2.80
2018-10-03T22:33:35.690Z,3.00
2018-10-03T22:36:04.096Z,3.80
2018-10-03T22:38:31.893Z,3.57
2018-10-03T22:40:59.688Z,3.10
2018-10-03T22:43:27.451Z,4.00
2018-10-03T22:45:59.244Z,3.30
2018-10-03T22:48:27.058Z,3.27
2018-10-03T22:50:54.840Z,3.40
2018-10-03T22:53:22.649Z,2.70
2018-10-03T22:55:50.783Z,2.87
2018-10-03T22:58:18.571Z,2.83
2018-10-03T23:00:46.345Z,2.83
2018-10-03T23:03:14.146Z,2.97
2018-10-03T23:05:41.956Z,2.90
2018-10-03T23:08:09.763Z,2.70
2018-10-03T23:10:37.559Z,2.40
2018-10-03T23:13:05.383Z,2.90
2018-10-03T23:15:33.206Z,2.80
2018-10-03T23:18:01.195Z,2.90
2018-10-03T23:20:29.002Z,3.03
2018-10-03T23:22:56.778Z,2.83
2018-10-03T23:25:24.656Z,2.20
2018-10-03T23:27:52.472Z,2.20
2018-10-03T23:30:20.595Z,1.93
2018-10-03T23:32:48.896Z,2.40
2018-10-03T23:35:16.705Z,2.67
2018-10-03T23:37:44.843Z,1.93
2018-10-03T23:40:12.623Z,2.43
2018-10-03T23:42:40.777Z,2.00
2018-10-03T23:45:08.585Z,6.80
2018-10-03T23:47:40.350Z,6.43
2018-10-03T23:50:08.147Z,3.70
2018-10-03T23:52:35.931Z,3.07
2018-10-03T23:55:03.751Z,3.87
2018-10-03T23:57:31.575Z,3.30
2018-10-03T23:59:59.363Z,2.77
